Time;durP1;ratioP1;P1;durP2;ratioP2;P2;SDS_P1;SDS_P2;PMS_P1;PMS_P2;Temp;Humidity;BMP_temperature;BMP_pressure;BME280_temperature;BME280_humidity;BME280_pressure;Samples;Min_cycle;Max_cycle;Signal;HPM_P1;HPM_P2
2022/09/08 00:01:35;;;;;;;2.00;1.63;;;;;;;18.10;100.00;98138.03;5042851;28;20013;-70
2022/09/08 00:04:05;;;;;;;3.08;1.83;;;;;;;18.08;100.00;98123.78;5054877;28;20060;-70
2022/09/08 00:06:32;;;;;;;2.45;1.70;;;;;;;18.04;100.00;98128.13;5043393;28;20103;-70
2022/09/08 00:08:58;;;;;;;5.03;2.03;;;;;;;18.01;100.00;98127.88;5042679;28;20110;-69
2022/09/08 00:11:28;;;;;;;3.58;1.70;;;;;;;17.90;100.00;98137.94;5053241;28;20029;-70
2022/09/08 00:13:57;;;;;;;3.60;2.35;;;;;;;17.95;100.00;98146.19;5032153;28;20036;-70
2022/09/08 00:16:23;;;;;;;3.78;2.10;;;;;;;17.86;100.00;98145.84;5046996;28;20017;-70
2022/09/08 00:18:50;;;;;;;4.35;1.77;;;;;;;17.86;100.00;98150.50;5045153;28;20513;-70
2022/09/08 00:21:17;;;;;;;4.00;1.83;;;;;;;17.82;100.00;98141.19;5040360;28;20036;-70
2022/09/08 00:23:42;;;;;;;2.83;1.80;;;;;;;17.76;100.00;98132.09;5045356;28;20482;-70
2022/09/08 00:26:08;;;;;;;3.25;1.67;;;;;;;17.75;100.00;98124.97;5041541;28;20036;-70
2022/09/08 00:28:34;;;;;;;3.30;1.95;;;;;;;17.97;100.00;98124.81;5044601;28;20033;-70
2022/09/08 00:30:59;;;;;;;2.42;1.67;;;;;;;17.96;100.00;98121.25;5047180;28;20586;-70
2022/09/08 00:33:25;;;;;;;3.35;1.75;;;;;;;17.99;100.00;98121.81;5043515;28;20022;-70
2022/09/08 00:35:51;;;;;;;3.20;1.77;;;;;;;17.89;100.00;98114.38;5047126;28;20025;-70
2022/09/08 00:38:19;;;;;;;4.88;2.35;;;;;;;17.78;100.00;98105.28;5030001;28;20037;-70
2022/09/08 00:40:46;;;;;;;4.63;2.08;;;;;;;17.99;100.00;98136.34;5047366;28;20108;-70
2022/09/08 00:43:30;;;;;;;4.78;1.90;;;;;;;17.88;100.00;98140.13;5043299;28;20111;-70
2022/09/08 00:45:58;;;;;;;4.20;1.80;;;;;;;17.84;100.00;98137.09;5046875;28;20025;-70
2022/09/08 00:48:24;;;;;;;1.80;1.63;;;;;;;17.91;100.00;98136.84;5047364;28;20032;-70
2022/09/08 00:50:50;;;;;;;9.63;1.80;;;;;;;17.82;100.00;98127.53;5039848;28;20033;-70
2022/09/08 00:53:19;;;;;;;5.93;1.83;;;;;;;17.84;100.00;98133.53;5044431;28;20104;-70
2022/09/08 00:55:45;;;;;;;7.43;2.13;;;;;;;17.70;100.00;98131.25;5048816;28;20044;-70
2022/09/08 00:58:12;;;;;;;2.00;1.63;;;;;;;17.62;100.00;98129.03;5052546;28;20053;-72
2022/09/08 01:00:40;;;;;;;4.68;2.00;;;;;;;17.79;100.00;98141.69;5032171;28;20044;-70
2022/09/08 01:03:09;;;;;;;5.00;2.03;;;;;;;17.71;100.00;98141.13;5054028;28;20029;-69
2022/09/08 01:05:54;;;;;;;2.63;1.52;;;;;;;17.63;100.00;98143.50;5043839;28;20035;-70
2022/09/08 01:14:06;;;;;;;5.32;1.50;;;;;;;17.70;100.00;98144.94;5047787;28;20395;-70
2022/09/08 01:16:40;;;;;;;4.28;1.90;;;;;;;17.66;100.00;98145.75;5048807;28;20020;-70
2022/09/08 01:19:14;;;;;;;3.92;1.92;;;;;;;17.73;100.00;98158.06;5042896;28;20533;-70
2022/09/08 01:22:14;;;;;;;4.20;1.98;;;;;;;17.74;100.00;98159.72;5032210;28;20039;-70
2022/09/08 01:25:04;;;;;;;4.13;1.70;;;;;;;17.58;100.00;98154.44;5047193;28;20025;-70
2022/09/08 01:27:31;;;;;;;7.10;2.25;;;;;;;17.58;100.00;98157.16;5044613;28;20029;-70
2022/09/08 01:30:02;;;;;;;4.60;2.38;;;;;;;17.51;100.00;98173.81;5051503;28;20051;-70
2022/09/08 01:32:31;;;;;;;6.25;2.58;;;;;;;17.45;100.00;98169.41;5028643;28;20025;-70
2022/09/08 01:34:56;;;;;;;4.47;2.67;;;;;;;17.20;100.00;98151.72;5045378;28;20033;-70
2022/09/08 01:37:22;;;;;;;5.30;2.40;;;;;;;17.18;100.00;98162.09;5047157;28;20032;-70
2022/09/08 01:39:47;;;;;;;4.30;2.65;;;;;;;17.19;100.00;98162.94;5045171;28;20554;-70
2022/09/08 01:42:13;;;;;;;3.88;2.38;;;;;;;17.26;100.00;98153.41;5048237;28;20386;-70
2022/09/08 01:44:38;;;;;;;5.45;2.70;;;;;;;17.30;100.00;98151.00;5051785;28;20112;-70
2022/09/08 01:47:03;;;;;;;4.88;2.78;;;;;;;17.27;100.00;98141.41;5049829;28;20116;-70
2022/09/08 01:49:29;;;;;;;4.82;2.60;;;;;;;17.24;100.00;98141.94;5048846;28;20599;-70
2022/09/08 01:51:54;;;;;;;5.85;2.80;;;;;;;17.14;100.00;98146.50;5044765;28;20021;-70
2022/09/08 01:54:20;;;;;;;4.85;2.78;;;;;;;17.12;100.00;98135.81;5050529;28;20116;-70
2022/09/08 01:56:45;;;;;;;9.45;3.65;;;;;;;17.07;100.00;98138.50;5049119;28;20028;-70
2022/09/08 01:59:10;;;;;;;3.97;2.75;;;;;;;17.07;100.00;98146.72;5044177;28;20522;-70
2022/09/08 02:01:35;;;;;;;4.55;3.42;;;;;;;17.12;100.00;98138.56;5055616;28;20079;-69
2022/09/08 02:04:01;;;;;;;6.40;3.30;;;;;;;17.08;100.00;98146.47;5052706;28;20025;-70
2022/09/08 02:06:27;;;;;;;8.15;3.40;;;;;;;16.94;100.00;98130.75;5050719;28;20025;-69
2022/09/08 02:08:53;;;;;;;4.22;2.92;;;;;;;16.99;100.00;98123.41;5041284;28;20517;-69
2022/09/08 02:11:19;;;;;;;4.93;2.72;;;;;;;17.00;100.00;98114.16;5051040;28;20044;-70
2022/09/08 02:13:44;;;;;;;5.22;2.38;;;;;;;16.95;100.00;98105.91;5049824;28;20033;-69
2022/09/08 02:16:11;;;;;;;7.38;2.80;;;;;;;16.96;100.00;98110.28;5047241;28;20037;-70
2022/09/08 02:18:38;;;;;;;3.80;2.90;;;;;;;16.98;100.00;98099.94;5043129;28;20386;-69
2022/09/08 02:21:10;;;;;;;4.00;2.70;;;;;;;16.99;100.00;98098.00;5032017;28;20032;-69
2022/09/08 02:23:37;;;;;;;4.18;2.92;;;;;;;17.00;100.00;98099.66;5048637;28;20021;-69
2022/09/08 02:26:03;;;;;;;6.13;2.67;;;;;;;17.05;100.00;98089.56;5047175;28;20028;-69
2022/09/08 02:28:28;;;;;;;4.03;3.10;;;;;;;17.11;100.00;98086.88;5036416;28;20028;-69
2022/09/08 02:31:01;;;;;;;6.40;3.03;;;;;;;17.07;100.00;98095.59;5046190;28;20027;-69
2022/09/08 02:33:27;;;;;;;4.68;3.25;;;;;;;17.15;100.00;98088.81;5050226;28;20031;-69
2022/09/08 02:35:53;;;;;;;3.95;3.13;;;;;;;17.04;100.00;98089.84;5056235;28;20111;-69
2022/09/08 02:38:18;;;;;;;4.90;3.22;;;;;;;16.95;100.00;98085.94;5046876;28;20033;-69
2022/09/08 02:40:43;;;;;;;6.43;3.35;;;;;;;17.01;100.00;98083.00;5051052;28;20082;-69
2022/09/08 02:43:09;;;;;;;7.05;3.22;;;;;;;17.05;100.00;98084.09;5042849;28;20580;-69
2022/09/08 02:45:40;;;;;;;6.50;2.80;;;;;;;17.01;100.00;98068.53;5045571;28;20025;-69
2022/09/08 02:48:06;;;;;;;5.13;3.60;;;;;;;17.00;100.00;98080.53;5043170;28;20035;-69
2022/09/08 02:50:31;;;;;;;5.55;2.67;;;;;;;17.07;100.00;98081.13;5050930;28;20021;-69
2022/09/08 02:52:56;;;;;;;6.60;3.05;;;;;;;17.02;100.00;98078.34;5046198;28;20017;-69
2022/09/08 02:55:23;;;;;;;5.55;3.38;;;;;;;16.92;100.00;98050.94;5047880;28;20083;-68
2022/09/08 02:57:49;;;;;;;4.78;2.92;;;;;;;16.99;100.00;98063.31;5042504;28;20047;-69
2022/09/08 03:00:15;;;;;;;5.72;3.13;;;;;;;17.05;100.00;98072.34;5047457;28;20020;-69
2022/09/08 03:02:41;;;;;;;4.22;3.55;;;;;;;17.03;100.00;98077.28;5047429;28;20043;-69
2022/09/08 03:05:07;;;;;;;7.97;3.95;;;;;;;17.07;100.00;98075.66;5029947;28;20032;-69
2022/09/08 03:07:32;;;;;;;6.57;3.80;;;;;;;17.12;100.00;98077.59;5041636;28;20510;-69
2022/09/08 03:09:57;;;;;;;9.15;4.13;;;;;;;17.21;100.00;98081.47;5039939;28;20119;-69
2022/09/08 03:12:26;;;;;;;7.60;3.78;;;;;;;17.22;100.00;98089.44;5045867;28;20393;-69
2022/09/08 03:14:52;;;;;;;5.25;3.22;;;;;;;17.27;100.00;98075.78;5031554;28;20086;-69
2022/09/08 03:17:17;;;;;;;4.70;3.47;;;;;;;17.45;100.00;98076.44;5043818;28;20467;-69
2022/09/08 03:19:42;;;;;;;4.43;3.05;;;;;;;17.47;100.00;98068.75;5043072;28;20025;-69
2022/09/08 03:22:08;;;;;;;4.15;3.20;;;;;;;17.50;100.00;98076.44;5045452;28;20482;-69
2022/09/08 03:24:33;;;;;;;5.38;2.97;;;;;;;17.49;100.00;98081.09;5047430;28;20029;-69
2022/09/08 03:27:00;;;;;;;6.22;3.10;;;;;;;17.52;100.00;98083.28;5047443;28;20375;-68
2022/09/08 03:29:28;;;;;;;6.10;2.90;;;;;;;17.51;100.00;98081.66;5043843;28;20111;-68
2022/09/08 03:31:53;;;;;;;6.53;3.17;;;;;;;17.48;100.00;98067.69;5046664;28;20033;-69
2022/09/08 03:34:18;;;;;;;6.03;3.30;;;;;;;17.48;100.00;98067.69;5046390;28;20041;-68
2022/09/08 03:36:44;;;;;;;3.88;2.38;;;;;;;17.54;100.00;98083.03;5048099;28;20084;-69
2022/09/08 03:39:09;;;;;;;4.43;2.47;;;;;;;17.53;100.00;98084.13;5044624;28;20048;-69
2022/09/08 03:41:34;;;;;;;4.95;2.42;;;;;;;17.52;100.00;98077.81;5049916;28;20700;-69
2022/09/08 03:44:00;;;;;;;4.78;2.70;;;;;;;17.52;100.00;98085.19;5052173;28;20079;-69
2022/09/08 03:46:25;;;;;;;3.92;2.05;;;;;;;17.54;100.00;98074.81;5051552;28;20031;-68
2022/09/08 03:48:50;;;;;;;7.45;1.90;;;;;;;17.43;100.00;98057.56;5044713;28;20095;-69
2022/09/08 03:51:22;;;;;;;6.03;1.90;;;;;;;17.60;100.00;98081.94;5045182;28;20021;-69
2022/09/08 03:53:48;;;;;;;2.10;1.63;;;;;;;17.61;100.00;98083.63;5027978;28;20032;-68
2022/09/08 03:56:14;;;;;;;1.92;1.45;;;;;;;17.66;100.00;98078.16;5051708;28;20025;-69
2022/09/08 03:58:41;;;;;;;1.83;1.20;;;;;;;17.67;100.00;98076.25;5047367;28;20055;-68
2022/09/08 04:01:08;;;;;;;1.50;1.27;;;;;;;17.67;100.00;98076.25;5049402;28;20039;-68
2022/09/08 04:03:33;;;;;;;9.82;1.40;;;;;;;17.67;100.00;98068.88;5024115;28;20474;-69
2022/09/08 04:05:59;;;;;;;1.92;1.35;;;;;;;17.55;100.00;98060.06;5048021;28;20025;-69
2022/09/08 04:08:24;;;;;;;1.50;0.90;;;;;;;17.62;100.00;98087.16;5044637;28;20029;-68
2022/09/08 04:10:50;;;;;;;3.28;0.88;;;;;;;17.52;100.00;98083.28;5044923;28;20033;-68
2022/09/08 04:13:15;;;;;;;1.77;0.80;;;;;;;17.41;100.00;98078.03;5050289;28;20100;-69
2022/09/08 04:15:40;;;;;;;4.75;1.17;;;;;;;17.37;100.00;98074.19;5045120;28;20032;-69
2022/09/08 04:18:06;;;;;;;1.15;0.77;;;;;;;17.36;100.00;98084.31;5042832;28;20029;-72
2022/09/08 04:20:31;;;;;;;1.10;0.77;;;;;;;17.27;100.00;98070.31;5041177;28;20039;-75
2022/09/08 04:22:57;;;;;;;2.00;0.95;;;;;;;17.20;100.00;98072.44;5026551;28;20033;-75
2022/09/08 04:25:23;;;;;;;1.42;0.65;;;;;;;17.13;100.00;98080.06;5043329;28;20033;-75
2022/09/08 04:27:48;;;;;;;1.50;0.93;;;;;;;17.06;100.00;98084.94;5044629;28;20100;-75
2022/09/08 04:30:14;;;;;;;1.40;0.90;;;;;;;16.91;100.00;98069.25;5029700;28;20064;-73
2022/09/08 04:32:40;;;;;;;1.60;0.90;;;;;;;16.94;100.00;98081.56;5037211;28;20032;-73
2022/09/08 04:35:06;;;;;;;3.03;1.20;;;;;;;16.86;100.00;98074.69;5036470;28;20032;-73
2022/09/08 04:37:31;;;;;;;1.35;0.98;;;;;;;16.86;100.00;98080.97;5053989;28;20024;-75
2022/09/08 04:39:57;;;;;;;1.70;1.60;;;;;;;16.76;100.00;98078.13;5056091;28;20024;-74
2022/09/08 04:42:23;;;;;;;5.05;1.13;;;;;;;16.64;100.00;98066.59;5053570;28;20479;-74
2022/09/08 04:44:49;;;;;;;3.05;1.20;;;;;;;16.71;100.00;98097.19;5033868;28;20139;-73
2022/09/08 04:47:14;;;;;;;2.67;1.17;;;;;;;16.63;100.00;98086.75;5034191;28;20100;-72
2022/09/08 04:49:39;;;;;;;8.38;1.30;;;;;;;16.55;100.00;98081.78;5064032;28;20035;-73
2022/09/08 04:52:05;;;;;;;3.30;1.10;;;;;;;16.50;100.00;98090.75;5065154;28;20036;-75
2022/09/08 04:54:30;;;;;;;2.42;1.13;;;;;;;16.50;100.00;98098.94;5066195;28;20308;-74
2022/09/08 04:56:56;;;;;;;5.45;1.20;;;;;;;16.49;100.00;98107.41;5072386;28;20032;-74
2022/09/08 04:59:24;;;;;;;2.65;1.50;;;;;;;16.36;100.00;98086.81;5074342;28;20051;-75
2022/09/08 05:01:52;;;;;;;2.50;1.67;;;;;;;16.30;100.00;98083.19;5072225;28;20032;-75
2022/09/08 05:04:17;;;;;;;1.30;1.10;;;;;;;16.36;100.00;98106.72;5067368;28;20036;-70
2022/09/08 05:06:43;;;;;;;3.00;1.02;;;;;;;16.31;100.00;98109.41;5064948;28;20029;-71
2022/09/08 05:09:09;;;;;;;3.13;1.38;;;;;;;16.27;100.00;98111.03;5060237;28;20035;-70
2022/09/08 05:11:35;;;;;;;2.05;1.08;;;;;;;16.17;100.00;98097.25;5049998;28;20031;-70
2022/09/08 05:14:01;;;;;;;2.95;1.30;;;;;;;16.24;100.00;98100.59;5058603;28;20470;-71
2022/09/08 05:16:28;;;;;;;2.70;1.42;;;;;;;16.23;100.00;98109.06;5064005;28;20029;-70
2022/09/08 05:18:59;;;;;;;1.95;1.38;;;;;;;16.21;100.00;98107.38;5064327;28;20047;-71
2022/09/08 05:21:26;;;;;;;5.03;1.20;;;;;;;16.18;100.00;98107.09;5059403;28;20061;-70
2022/09/08 05:23:53;;;;;;;1.98;1.40;;;;;;;16.24;100.00;98108.78;5058328;28;20040;-70
2022/09/08 05:26:20;;;;;;;1.55;1.20;;;;;;;16.24;100.00;98119.69;5057029;28;20029;-70
2022/09/08 05:28:46;;;;;;;4.22;1.50;;;;;;;16.23;100.00;98128.97;5053821;28;20080;-70
2022/09/08 05:31:17;;;;;;;2.28;1.30;;;;;;;16.24;100.00;98124.34;5049262;28;20393;-70
2022/09/08 05:33:43;;;;;;;4.40;1.60;;;;;;;16.21;100.00;98128.41;5048546;28;20029;-71
2022/09/08 05:36:14;;;;;;;1.52;1.13;;;;;;;16.25;100.00;98142.38;5044716;28;20060;-71
2022/09/08 05:38:40;;;;;;;6.15;1.60;;;;;;;16.24;100.00;98137.97;5051396;28;20021;-70
2022/09/08 05:41:05;;;;;;;2.55;1.30;;;;;;;16.28;100.00;98150.88;5048219;28;20051;-71
2022/09/08 05:43:31;;;;;;;2.47;1.35;;;;;;;16.29;100.00;98157.97;5052763;28;20033;-71
2022/09/08 05:45:56;;;;;;;2.88;1.30;;;;;;;16.28;100.00;98169.97;5051997;28;20055;-71
2022/09/08 05:48:22;;;;;;;5.13;1.40;;;;;;;16.21;100.00;98152.97;5050557;28;20505;-71
2022/09/08 05:50:47;;;;;;;4.10;1.23;;;;;;;16.29;100.00;98182.53;5047202;28;20040;-71
2022/09/08 05:53:13;;;;;;;1.55;0.90;;;;;;;16.21;100.00;98177.53;5050957;28;20043;-71
2022/09/08 05:55:40;;;;;;;2.33;1.05;;;;;;;16.24;100.00;98185.19;5050812;28;20049;-70
2022/09/08 05:58:07;;;;;;;1.77;0.90;;;;;;;16.24;100.00;98171.56;5050165;28;20483;-71
2022/09/08 06:00:33;;;;;;;1.23;1.00;;;;;;;16.09;100.00;98185.06;5049273;28;20037;-71
2022/09/08 06:02:59;;;;;;;1.00;0.63;;;;;;;16.00;100.00;98181.91;5047886;28;20017;-70
2022/09/08 06:05:24;;;;;;;2.15;0.70;;;;;;;15.89;100.00;98186.41;5044733;28;20027;-70
2022/09/08 06:07:49;;;;;;;1.20;0.60;;;;;;;15.83;100.00;98197.53;5040988;28;20057;-70
2022/09/08 06:10:16;;;;;;;1.60;0.52;;;;;;;15.71;100.00;98203.91;5045097;28;20043;-70
2022/09/08 06:12:42;;;;;;;0.95;0.50;;;;;;;15.77;100.00;98207.53;5043103;28;20025;-72
2022/09/08 06:15:08;;;;;;;0.52;0.40;;;;;;;15.70;100.00;98202.25;5045772;28;20566;-73
2022/09/08 06:17:34;;;;;;;2.08;0.68;;;;;;;15.68;100.00;98225.38;5037258;28;20025;-69
2022/09/08 06:20:00;;;;;;;1.40;0.68;;;;;;;15.57;100.00;98222.50;5045853;28;20077;-73
2022/09/08 06:22:25;;;;;;;1.10;0.50;;;;;;;15.63;100.00;98225.31;5043473;28;20091;-73
2022/09/08 06:24:51;;;;;;;0.80;0.50;;;;;;;15.59;100.00;98219.53;5048369;28;20020;-74
2022/09/08 06:27:35;;;;;;;0.65;0.50;;;;;;;15.62;100.00;98229.13;5047408;28;20025;-73
2022/09/08 06:30:07;;;;;;;1.58;0.80;;;;;;;15.61;100.00;98216.53;5059757;28;22412;-74
2022/09/08 06:32:39;;;;;;;1.50;0.55;;;;;;;15.49;100.00;98214.75;5034002;28;20029;-74
2022/09/08 06:35:13;;;;;;;3.05;0.47;;;;;;;15.61;100.00;98232.91;5043566;28;20028;-73
2022/09/08 06:37:44;;;;;;;1.63;0.45;;;;;;;15.46;100.00;98226.16;5040869;28;20111;-70
2022/09/08 06:40:15;;;;;;;0.80;0.30;;;;;;;15.47;100.00;98227.78;5040393;28;20495;-71
2022/09/08 06:42:53;;;;;;;1.27;0.40;;;;;;;15.57;100.00;98222.50;5047803;28;20029;-71
2022/09/08 06:45:28;;;;;;;4.78;0.50;;;;;;;15.71;100.00;98211.25;5042934;28;20021;-70
2022/09/08 06:48:15;;;;;;;1.30;0.50;;;;;;;15.74;100.00;98206.13;5046269;28;20119;-72
2022/09/08 06:51:05;;;;;;;1.70;0.35;;;;;;;15.83;100.00;98209.25;5039148;28;20063;-71
2022/09/08 06:53:36;;;;;;;0.77;0.65;;;;;;;15.70;100.00;98215.91;5043429;28;20021;-70
2022/09/08 06:56:18;;;;;;;2.70;0.60;;;;;;;15.82;100.00;98207.59;5046300;28;20037;-74
2022/09/08 06:58:44;;;;;;;3.30;0.60;;;;;;;15.77;100.00;98210.25;5025747;28;20029;-70
2022/09/08 07:01:24;;;;;;;0.73;0.40;;;;;;;15.85;100.00;98223.47;5041991;28;20036;-71
2022/09/08 07:03:58;;;;;;;1.70;0.35;;;;;;;15.87;100.00;98224.03;5024986;28;20031;-70
2022/09/08 07:06:27;;;;;;;2.15;0.32;;;;;;;15.91;100.00;98217.00;5042448;28;20037;-71
2022/09/08 07:09:07;;;;;;;1.35;0.40;;;;;;;15.86;100.00;98227.03;5030931;28;20111;-71
2022/09/08 07:11:51;;;;;;;0.77;0.20;;;;;;;15.70;100.00;98226.00;5026672;28;20029;-70
2022/09/08 07:14:49;;;;;;;0.85;0.50;;;;;;;16.04;100.00;98234.09;5047166;28;20405;-70
2022/09/08 07:17:26;;;;;;;0.20;0.20;;;;;;;16.08;100.00;98243.41;5042473;28;20497;-71
2022/09/08 07:19:54;;;;;;;1.23;0.38;;;;;;;16.06;100.00;98246.41;5046596;28;20028;-70
2022/09/08 07:22:32;;;;;;;2.42;0.20;;;;;;;16.14;100.00;98237.78;5051590;28;20027;-70
2022/09/08 07:25:14;;;;;;;0.82;0.35;;;;;;;16.21;100.00;98238.41;5051710;28;20064;-70
2022/09/08 07:27:40;;;;;;;0.90;0.40;;;;;;;16.35;100.00;98232.59;5047296;28;20036;-70
2022/09/08 07:30:12;;;;;;;0.70;0.55;;;;;;;16.56;100.00;98236.38;5048067;28;20021;-70
2022/09/08 07:32:37;;;;;;;1.00;0.30;;;;;;;16.83;100.00;98241.88;5048994;28;20024;-70
2022/09/08 07:35:16;;;;;;;0.52;0.40;;;;;;;17.00;100.00;98250.78;5041041;28;20479;-70
2022/09/08 07:37:45;;;;;;;1.50;0.20;;;;;;;17.02;100.00;98245.88;5027112;28;20025;-70
2022/09/08 07:40:17;;;;;;;0.30;0.30;;;;;;;17.08;100.00;98254.94;5046177;28;20040;-70
2022/09/08 07:42:56;;;;;;;1.10;0.40;;;;;;;17.20;100.00;98254.78;5047114;28;20028;-70
2022/09/08 07:45:45;;;;;;;;;;;;;;;17.33;100.00;98256.28;5053116;28;20502;-70
2022/09/08 07:48:22;;;;;;;0.70;0.20;;;;;;;17.34;100.00;98255.19;5041526;28;19935;-70
2022/09/08 07:51:06;;;;;;;0.77;0.20;;;;;;;17.57;100.00;98254.00;5047801;28;20032;-70
2022/09/08 07:53:40;;;;;;;0.40;0.20;;;;;;;17.79;100.00;98273.91;5048736;28;20017;-70
2022/09/08 07:56:12;;;;;;;0.45;0.20;;;;;;;17.79;100.00;98279.38;5059166;28;20032;-70
2022/09/08 07:58:44;;;;;;;0.98;0.25;;;;;;;17.82;100.00;98273.38;5043252;28;20456;-71
2022/09/08 08:01:31;;;;;;;0.40;0.25;;;;;;;18.12;100.00;98275.44;5032544;28;20025;-70
2022/09/08 08:04:15;;;;;;;0.25;0.17;;;;;;;19.33;96.41;98278.03;5042813;28;20040;-70
2022/09/08 08:06:48;;;;;;;0.30;0.13;;;;;;;21.78;78.69;98279.03;5048210;28;20518;-70
2022/09/08 08:09:26;;;;;;;0.85;0.20;;;;;;;24.28;63.89;98280.25;5046734;28;20049;-71
2022/09/08 08:12:04;;;;;;;0.30;0.10;;;;;;;23.68;63.11;98277.44;5056527;28;20029;-71
2022/09/08 08:14:30;;;;;;;1.00;0.17;;;;;;;24.43;59.87;98278.31;5056281;28;20039;-70
2022/09/08 08:17:13;;;;;;;0.60;0.20;;;;;;;24.75;58.71;98287.66;5036003;28;20021;-71
2022/09/08 08:20:15;;;;;;;1.00;0.20;;;;;;;23.43;60.55;98283.41;5071346;23;20128;-73
2022/09/08 08:22:56;;;;;;;0.50;0.20;;;;;;;24.93;57.72;98292.25;5049285;28;20021;-73
2022/09/08 08:25:38;;;;;;;1.25;0.20;;;;;;;24.25;57.70;98294.69;5048508;28;20033;-73
2022/09/08 08:28:19;;;;;;;0.38;0.20;;;;;;;23.16;63.24;98296.78;5043689;28;20036;-71
2022/09/08 08:31:05;;;;;;;0.40;0.30;;;;;;;21.04;67.55;98296.63;5031723;28;20022;-71
2022/09/08 08:33:43;;;;;;;0.43;0.30;;;;;;;20.21;74.70;98306.28;5017924;28;20051;-71
2022/09/08 08:36:12;;;;;;;1.48;0.35;;;;;;;20.72;76.76;98309.72;5028068;28;20044;-71
2022/09/08 08:38:47;;;;;;;2.05;0.30;;;;;;;21.22;73.51;98320.72;5029127;28;20025;-71
2022/09/08 08:41:33;;;;;;;5.97;0.52;;;;;;;22.27;67.10;98296.50;5029765;28;20112;-71
2022/09/08 08:44:04;;;;;;;1.45;0.30;;;;;;;23.28;62.25;98312.88;5031310;28;20039;-71
2022/09/08 08:46:53;;;;;;;1.13;0.32;;;;;;;24.03;60.05;98311.97;5028735;28;20034;-71
2022/09/08 08:49:35;;;;;;;0.82;0.28;;;;;;;25.40;55.33;98301.19;5015333;28;20124;-71
2022/09/08 08:52:23;;;;;;;0.90;0.38;;;;;;;25.87;52.46;98310.03;5013328;28;20021;-71
2022/09/08 08:55:08;;;;;;;0.73;0.28;;;;;;;25.54;52.94;98306.66;5027027;28;20032;-71
2022/09/08 08:57:51;;;;;;;0.30;0.20;;;;;;;24.83;54.90;98320.94;5028493;28;20029;-71
2022/09/08 09:00:19;;;;;;;0.50;0.20;;;;;;;28.16;47.81;98309.91;5022121;28;20025;-71
2022/09/08 09:02:51;;;;;;;0.40;0.30;;;;;;;26.40;49.36;98300.03;5011319;28;20391;-72
2022/09/08 09:05:47;;;;;;;1.70;0.25;;;;;;;24.33;55.07;98331.06;5022035;28;20024;-71
2022/09/08 09:08:33;;;;;;;1.08;0.20;;;;;;;23.03;58.87;98318.75;5023645;28;20080;-72
2022/09/08 09:11:40;;;;;;;0.40;0.22;;;;;;;23.21;58.33;98320.69;5032673;28;20028;-71
2022/09/08 09:14:16;;;;;;;0.55;0.20;;;;;;;23.14;59.61;98307.28;5026171;28;20043;-71
2022/09/08 09:16:41;;;;;;;0.40;0.20;;;;;;;24.67;55.99;98334.28;5020484;28;20029;-71
2022/09/08 09:19:25;;;;;;;0.70;0.20;;;;;;;26.53;50.04;98326.88;5001463;28;20092;-71
2022/09/08 09:22:06;;;;;;;1.63;0.20;;;;;;;26.18;50.61;98329.47;5009826;28;20272;-71
2022/09/08 09:24:57;;;;;;;0.75;0.13;;;;;;;26.98;49.46;98328.66;5024050;28;20029;-70
2022/09/08 09:27:39;;;;;;;2.03;0.30;;;;;;;25.58;52.59;98332.59;5021100;28;20457;-73
2022/09/08 09:30:35;;;;;;;0.13;0.13;;;;;;;25.59;53.33;98329.50;5027184;28;20025;-73
2022/09/08 09:33:37;;;;;;;0.50;0.20;;;;;;;24.34;55.73;98338.22;5032606;28;20033;-73
2022/09/08 09:36:25;;;;;;;0.63;0.20;;;;;;;24.38;56.52;98337.31;5012169;28;20033;-72
2022/09/08 09:39:19;;;;;;;0.32;0.17;;;;;;;24.92;54.49;98334.91;5029020;28;20028;-72
2022/09/08 09:42:07;;;;;;;1.70;0.22;;;;;;;25.30;54.44;98313.31;4984738;28;20443;-72
2022/09/08 09:44:50;;;;;;;0.70;0.17;;;;;;;26.22;51.79;98333.22;5039607;28;20031;-72
2022/09/08 09:47:42;;;;;;;0.22;0.20;;;;;;;26.48;49.81;98329.75;5033168;28;20052;-72
2022/09/08 09:50:32;;;;;;;0.57;0.10;;;;;;;26.95;49.27;98329.31;5014819;28;20116;-72
2022/09/08 09:53:21;;;;;;;1.23;0.20;;;;;;;29.36;43.55;98331.13;5025381;28;20116;-72
2022/09/08 09:56:28;;;;;;;0.35;0.13;;;;;;;31.12;39.93;98321.41;5025779;28;20072;-73
2022/09/08 09:59:01;;;;;;;0.60;0.22;;;;;;;30.47;39.69;98321.28;5024730;28;20121;-73
2022/09/08 10:01:56;;;;;;;0.57;0.22;;;;;;;30.21;40.57;98329.06;5017810;28;20029;-73
2022/09/08 10:04:46;;;;;;;0.32;0.13;;;;;;;29.03;42.48;98337.41;5025218;28;20040;-73
2022/09/08 10:07:23;;;;;;;0.32;0.20;;;;;;;27.52;45.32;98329.25;5025677;28;20075;-73
2022/09/08 10:10:28;;;;;;;0.68;0.20;;;;;;;28.70;44.04;98328.06;5022727;28;20144;-73
2022/09/08 10:13:22;;;;;;;0.10;0.10;;;;;;;28.99;43.55;98330.84;5024815;28;20025;-73
2022/09/08 10:16:05;;;;;;;1.33;0.30;;;;;;;27.14;44.70;98321.50;5026367;28;20026;-70
2022/09/08 10:18:52;;;;;;;1.27;0.32;;;;;;;30.24;39.99;98314.47;5022657;28;20040;-65
2022/09/08 10:21:20;;;;;;;0.60;0.15;;;;;;;29.53;41.13;98298.69;5026100;28;20051;-77
2022/09/08 10:24:39;;;;;;;2.17;0.15;;;;;;;31.64;37.93;98305.81;5027522;28;20056;-80
2022/09/08 10:27:30;;;;;;;0.73;0.20;;;;;;;32.02;34.89;98304.53;4917123;29;20040;-80
2022/09/08 10:30:19;;;;;;;0.90;0.20;;;;;;;32.84;34.36;98312.25;5013219;28;20030;-80
2022/09/08 10:33:07;;;;;;;0.55;0.20;;;;;;;31.80;35.91;98311.44;4991890;28;20052;-80
2022/09/08 10:35:39;;;;;;;0.68;0.10;;;;;;;31.06;37.28;98310.81;5002550;28;20502;-80
2022/09/08 10:38:25;;;;;;;0.40;0.15;;;;;;;29.57;39.36;98316.38;5033041;28;20033;-79
2022/09/08 10:40:57;;;;;;;0.68;0.30;;;;;;;29.39;38.91;98308.16;5034832;28;20025;-81
2022/09/08 10:43:28;;;;;;;1.42;0.30;;;;;;;29.16;40.36;98310.47;5023005;28;20013;-80
2022/09/08 10:46:23;;;;;;;0.15;0.10;;;;;;;26.76;43.73;98305.41;5013375;28;20549;-80
2022/09/08 10:49:09;;;;;;;0.75;0.30;;;;;;;25.39;47.60;98313.41;5022122;28;20433;-79
2022/09/08 10:52:01;;;;;;;1.50;0.30;;;;;;;25.06;50.15;98290.59;5015463;28;20018;-80
2022/09/08 10:55:05;;;;;;;0.75;0.30;;;;;;;25.16;49.91;98314.50;5027707;28;20057;-79
2022/09/08 10:58:04;;;;;;;1.05;0.30;;;;;;;26.03;48.58;98313.22;5036309;28;20041;-79
2022/09/08 11:00:39;;;;;;;1.55;0.30;;;;;;;27.63;43.83;98302.75;5024606;28;20036;-79
2022/09/08 11:03:42;;;;;;;1.13;0.25;;;;;;;28.19;43.43;98325.09;5003102;28;20013;-78
2022/09/08 11:06:21;;;;;;;1.95;0.20;;;;;;;25.05;47.83;98323.00;5010300;28;20076;-78
2022/09/08 11:09:01;;;;;;;8.38;0.70;;;;;;;23.67;50.43;98324.72;5013882;28;20022;-78
2022/09/08 11:11:36;;;;;;;1.42;0.30;;;;;;;22.47;52.35;98321.06;5006775;28;20589;-78
2022/09/08 11:14:21;;;;;;;0.85;0.32;;;;;;;22.77;53.73;98321.84;5022670;28;20029;-77
2022/09/08 11:16:46;;;;;;;2.33;0.25;;;;;;;22.48;54.51;98324.66;5018879;28;20029;-76
2022/09/08 11:19:27;;;;;;;1.03;0.30;;;;;;;24.22;49.91;98319.38;5014549;28;20032;-77
2022/09/08 11:22:19;;;;;;;1.27;0.40;;;;;;;28.58;42.65;98304.56;5014896;28;20282;-76
2022/09/08 11:25:04;;;;;;;1.73;0.20;;;;;;;30.52;37.57;98301.50;5019606;28;20026;-75
2022/09/08 11:27:44;;;;;;;2.00;0.30;;;;;;;32.27;34.50;98294.78;5025126;28;20038;-76
2022/09/08 11:30:18;;;;;;;0.80;0.17;;;;;;;33.42;32.93;98296.78;5015148;28;20040;-76
2022/09/08 11:33:15;;;;;;;0.30;0.20;;;;;;;32.15;34.66;98305.25;5010426;28;20124;-77
2022/09/08 11:36:05;;;;;;;0.82;0.30;;;;;;;29.84;38.19;98303.84;5022066;28;20101;-76
2022/09/08 11:38:53;;;;;;;1.00;0.30;;;;;;;27.91;41.85;98308.00;5012967;28;20025;-76
2022/09/08 11:41:27;;;;;;;2.75;0.30;;;;;;;26.94;43.51;98308.25;5020104;28;20021;-77
2022/09/08 11:44:04;;;;;;;0.57;0.30;;;;;;;26.95;43.05;98301.53;5010801;28;20558;-77
2022/09/08 11:46:42;;;;;;;2.10;0.45;;;;;;;28.26;40.93;98308.72;5011595;28;20029;-76
2022/09/08 11:49:26;;;;;;;1.67;0.13;;;;;;;29.69;37.43;98302.53;5006588;28;20422;-73
2022/09/08 11:52:10;;;;;;;0.70;0.20;;;;;;;31.04;36.38;98305.56;5016745;28;20029;-73
2022/09/08 11:55:12;;;;;;;1.10;0.30;;;;;;;32.27;32.94;98305.97;5019974;28;20032;-73
2022/09/08 11:57:40;;;;;;;1.17;0.35;;;;;;;32.39;32.04;98307.09;5018740;28;20443;-73
2022/09/08 12:00:39;;;;;;;1.92;0.40;;;;;;;31.64;32.10;98287.03;5021537;28;20036;-73
2022/09/08 12:03:21;;;;;;;1.33;0.38;;;;;;;30.52;34.10;98314.63;5024201;28;20057;-73
2022/09/08 12:05:52;;;;;;;1.00;0.30;;;;;;;31.31;34.01;98303.19;5018647;28;20087;-73